Time;durP1;ratioP1;P1;durP2;ratioP2;P2;SDS_P1;SDS_P2;PMS_P1;PMS_P2;Temp;Humidity;BMP_temperature;BMP_pressure;BME280_temperature;BME280_humidity;BME280_pressure;Samples;Min_cycle;Max_cycle;Signal;HPM_P1;HPM_P2
2023/09/13 00:01:33;;;;;;;;;26.00;21.00;;;;;22.20;100.00;101455.25;5074800;28;45352;-76
2023/09/13 00:03:59;;;;;;;;;17.00;17.00;;;;;22.15;100.00;101451.81;5070225;27;64715;-76
2023/09/13 00:06:25;;;;;;;;;22.67;19.00;;;;;22.16;100.00;101451.78;5064236;28;46398;-76
2023/09/13 00:08:50;;;;;;;;;21.33;17.67;;;;;22.08;100.00;101450.19;5073102;27;65256;-76
2023/09/13 00:11:15;;;;;;;;;22.00;19.67;;;;;22.15;100.00;101449.13;5070080;27;45918;-76
2023/09/13 00:13:41;;;;;;;;;16.00;16.00;;;;;22.06;100.00;101450.22;5068728;28;45368;-76
2023/09/13 00:16:07;;;;;;;;;21.33;21.00;;;;;21.99;100.00;101451.28;5067318;27;47555;-76
2023/09/13 00:18:32;;;;;;;;;23.33;19.67;;;;;21.90;100.00;101449.75;5072835;28;45461;-76
2023/09/13 00:20:58;;;;;;;;;21.00;20.00;;;;;21.95;100.00;101458.59;5061159;27;45561;-77
2023/09/13 00:23:23;;;;;;;;;19.00;16.33;;;;;21.93;100.00;101457.72;5074595;28;45552;-76
2023/09/13 00:25:48;;;;;;;;;22.00;20.33;;;;;21.89;100.00;101450.69;5072376;28;63254;-76
2023/09/13 00:28:14;;;;;;;;;21.67;19.67;;;;;21.83;100.00;101453.50;5074888;27;68732;-76
2023/09/13 00:30:39;;;;;;;;;23.33;19.33;;;;;21.77;100.00;101450.09;5068479;27;45299;-76
2023/09/13 00:33:05;;;;;;;;;24.00;22.33;;;;;21.73;100.00;101446.59;5077080;27;45200;-77
2023/09/13 00:35:30;;;;;;;;;20.33;19.33;;;;;21.75;100.00;101439.38;5066470;27;69590;-76
2023/09/13 00:37:55;;;;;;;;;20.67;19.67;;;;;21.66;100.00;101439.63;5069593;28;45433;-77
2023/09/13 00:40:21;;;;;;;;;22.00;18.67;;;;;21.64;100.00;101453.09;5065240;27;64506;-76
2023/09/13 00:42:46;;;;;;;;;17.67;17.67;;;;;21.63;100.00;101451.34;5075635;27;45431;-76
2023/09/13 00:45:12;;;;;;;;;24.00;22.33;;;;;21.71;100.00;101448.44;5063069;27;45933;-76
2023/09/13 00:47:39;;;;;;;;;20.00;20.00;;;;;21.76;100.00;101449.22;5061201;28;45196;-76
2023/09/13 00:50:07;;;;;;;;;23.67;21.33;;;;;21.78;100.00;101444.66;5059318;28;45434;-76
2023/09/13 00:52:33;;;;;;;;;23.67;22.33;;;;;21.67;100.00;101453.00;5068543;28;45394;-76
2023/09/13 00:54:58;;;;;;;;;22.33;21.67;;;;;21.63;100.00;101458.53;5062802;27;72495;-76
2023/09/13 00:57:24;;;;;;;;;17.33;17.33;;;;;21.57;100.00;101467.63;5072656;27;69753;-76
2023/09/13 00:59:49;;;;;;;;;24.33;22.33;;;;;21.56;100.00;101464.94;5071294;27;64690;-76
2023/09/13 01:02:14;;;;;;;;;23.00;21.33;;;;;21.53;100.00;101465.03;5069020;27;45489;-76
2023/09/13 01:04:40;;;;;;;;;19.67;18.67;;;;;21.55;100.00;101457.81;5069514;27;71508;-76
2023/09/13 01:07:08;;;;;;;;;20.67;19.33;;;;;21.51;100.00;101467.75;5068018;28;45367;-76
2023/09/13 01:09:33;;;;;;;;;26.67;22.67;;;;;21.39;100.00;101465.34;5075615;27;45376;-76
2023/09/13 01:12:00;;;;;;;;;29.00;20.67;;;;;21.44;100.00;101464.31;5073960;27;45465;-76
2023/09/13 01:14:25;;;;;;;;;25.67;22.00;;;;;21.48;100.00;101469.63;5076831;27;47536;-76
2023/09/13 01:17:00;;;;;;;;;22.33;21.67;;;;;21.41;100.00;101467.09;5076405;28;70190;-76
2023/09/13 01:19:51;;;;;;;;;21.33;20.33;;;;;21.36;100.00;101468.09;5074110;28;45389;-76
2023/09/13 01:22:50;;;;;;;;;24.00;22.33;;;;;21.36;100.00;101466.34;5070538;27;45484;-76
2023/09/13 01:25:40;;;;;;;;;24.00;23.00;;;;;21.40;100.00;101459.94;5068827;27;47463;-76
2023/09/13 01:28:24;;;;;;;;;22.00;20.33;;;;;21.42;100.00;101468.00;5059039;28;45485;-76
2023/09/13 01:30:49;;;;;;;;;24.00;22.33;;;;;21.48;100.00;101466.97;5063852;28;45376;-76
2023/09/13 01:33:14;;;;;;;;;31.00;25.67;;;;;21.61;100.00;101463.91;5060939;28;64650;-76
2023/09/13 01:35:40;;;;;;;;;20.00;20.00;;;;;21.61;100.00;101460.34;5056886;28;47442;-76
2023/09/13 01:38:05;;;;;;;;;31.33;25.67;;;;;21.66;100.00;101458.44;5075294;27;62971;-76
2023/09/13 01:40:34;;;;;;;;;24.33;20.67;;;;;21.71;100.00;101469.94;5071391;27;59235;-76
2023/09/13 01:43:03;;;;;;;;;26.33;22.67;;;;;21.74;100.00;101472.56;5071372;28;45468;-76
2023/09/13 01:45:30;;;;;;;;;25.67;21.33;;;;;21.77;100.00;101472.47;5070853;27;47505;-76
2023/09/13 01:47:56;;;;;;;;;23.67;22.33;;;;;21.77;100.00;101469.78;5067407;28;45418;-76
2023/09/13 01:50:21;;;;;;;;;26.00;25.00;;;;;21.74;100.00;101475.25;5068767;27;47063;-76
2023/09/13 01:52:46;;;;;;;;;26.33;21.33;;;;;21.75;100.00;101476.16;5065614;28;45453;-76
2023/09/13 01:55:12;;;;;;;;;24.67;24.67;;;;;21.75;100.00;101481.53;5060756;27;47446;-76
2023/09/13 01:57:37;;;;;;;;;26.67;25.33;;;;;21.74;100.00;101486.00;5065920;28;69225;-76
2023/09/13 02:00:05;;;;;;;;;29.67;25.67;;;;;21.70;100.00;101487.00;5074108;27;45609;-76
2023/09/13 02:02:31;;;;;;;;;25.00;25.00;;;;;21.80;100.00;101493.91;5065483;28;45609;-76
2023/09/13 02:04:56;;;;;;;;;22.00;22.00;;;;;21.79;100.00;101491.28;5065723;28;69375;-76
2023/09/13 02:07:21;;;;;;;;;22.67;21.33;;;;;21.75;100.00;101495.84;5072104;27;57683;-76
2023/09/13 02:09:47;;;;;;;;;29.33;25.67;;;;;21.79;100.00;101492.16;5071880;27;51824;-76
2023/09/13 02:12:13;;;;;;;;;30.67;26.00;;;;;21.78;100.00;101492.19;5075601;27;45382;-76
2023/09/13 02:14:39;;;;;;;;;25.67;25.00;;;;;21.73;100.00;101497.66;5070242;27;68004;-76
2023/09/13 02:17:06;;;;;;;;;35.33;24.67;;;;;21.68;100.00;101496.94;5069446;27;45416;-76
2023/09/13 02:19:31;;;;;;;;;25.00;25.00;;;;;21.64;100.00;101506.84;5066913;27;45318;-76
2023/09/13 02:21:57;;;;;;;;;26.33;21.33;;;;;21.67;100.00;101508.56;5061636;27;61886;-76
2023/09/13 02:24:22;;;;;;;;;20.33;20.33;;;;;21.66;100.00;101523.81;5058284;28;70074;-76
2023/09/13 02:26:48;;;;;;;;;23.67;23.00;;;;;21.68;100.00;101521.13;5061732;28;69708;-77
2023/09/13 02:29:13;;;;;;;;;23.67;22.00;;;;;21.62;100.00;101518.53;5069741;27;65517;-77
2023/09/13 02:31:39;;;;;;;;;24.33;23.00;;;;;21.68;100.00;101519.31;5066692;28;61769;-76
2023/09/13 02:34:04;;;;;;;;;27.33;25.67;;;;;21.77;100.00;101525.38;5067580;27;47349;-76
2023/09/13 02:36:29;;;;;;;;;24.00;21.33;;;;;22.03;100.00;101527.41;5075657;27;69105;-76
2023/09/13 02:38:55;;;;;;;;;28.00;22.33;;;;;21.98;100.00;101520.34;5068943;27;45458;-75
2023/09/13 02:41:20;;;;;;;;;27.33;23.00;;;;;22.06;100.00;101513.91;5075772;27;61920;-76
2023/09/13 02:43:45;;;;;;;;;24.67;23.33;;;;;22.12;100.00;101503.00;5074805;28;70132;-76
2023/09/13 02:46:11;;;;;;;;;28.67;21.00;;;;;22.11;100.00;101512.00;5075516;27;51414;-76
2023/09/13 02:48:36;;;;;;;;;28.00;23.00;;;;;21.97;100.00;101505.13;5067059;27;63658;-76
2023/09/13 02:51:02;;;;;;;;;24.67;23.33;;;;;21.81;100.00;101510.94;5075426;27;62087;-76
2023/09/13 02:53:28;;;;;;;;;26.67;22.00;;;;;21.79;100.00;101510.97;5074229;27;47147;-76
2023/09/13 02:56:03;;;;;;;;;23.67;19.67;;;;;21.80;100.00;101511.88;5065561;27;45248;-77
2023/09/13 02:58:28;;;;;;;;;25.00;22.33;;;;;21.80;100.00;101511.88;5069852;28;45303;-76
2023/09/13 03:00:54;;;;;;;;;26.33;22.00;;;;;21.65;100.00;101513.13;5078938;27;61767;-75
2023/09/13 03:03:19;;;;;;;;;24.33;21.67;;;;;21.54;100.00;101520.53;5075555;27;45482;-76
2023/09/13 03:05:44;;;;;;;;;22.00;20.00;;;;;21.56;100.00;101542.88;5078284;27;69737;-76
2023/09/13 03:08:10;;;;;;;;;19.67;18.00;;;;;21.47;100.00;101533.25;5076009;27;65523;-75
2023/09/13 03:10:37;;;;;;;;;21.67;21.67;;;;;21.47;100.00;101535.06;5078829;27;62280;-76
2023/09/13 03:13:02;;;;;;;;;29.67;23.33;;;;;21.42;100.00;101533.34;5064793;27;46304;-76
2023/09/13 03:15:32;;;;;;;;;14.67;14.67;;;;;21.47;100.00;101533.25;5079364;27;45357;-76
2023/09/13 03:17:57;;;;;;;;;19.00;17.67;;;;;21.51;100.00;101528.66;5069069;27;45470;-76
2023/09/13 03:20:23;;;;;;;;;19.00;19.00;;;;;21.51;100.00;101531.34;5069388;27;45533;-76
2023/09/13 03:22:48;;;;;;;;;19.33;19.33;;;;;21.53;100.00;101533.09;5071058;27;70294;-76
2023/09/13 03:25:13;;;;;;;;;20.33;19.67;;;;;21.51;100.00;101532.22;5078672;27;45320;-75
2023/09/13 03:27:39;;;;;;;;;25.00;21.67;;;;;21.71;100.00;101523.72;5077389;27;45385;-76
2023/09/13 03:30:05;;;;;;;;;21.00;20.67;;;;;21.58;100.00;101524.94;5059834;27;45295;-76
2023/09/13 03:32:30;;;;;;;;;18.67;18.67;;;;;21.62;100.00;101523.91;5066056;27;47321;-76
2023/09/13 03:34:56;;;;;;;;;24.00;22.00;;;;;21.66;100.00;101528.31;5070369;28;45282;-76
2023/09/13 03:37:21;;;;;;;;;22.33;21.33;;;;;21.68;100.00;101523.81;5078627;27;45496;-76
2023/09/13 03:39:47;;;;;;;;;24.67;21.33;;;;;21.63;100.00;101520.34;5078178;27;65228;-76
2023/09/13 03:42:12;;;;;;;;;23.00;22.33;;;;;21.61;100.00;101514.09;5077405;27;69635;-76
2023/09/13 03:44:37;;;;;;;;;26.33;21.67;;;;;21.57;100.00;101516.00;5078014;27;61489;-76
2023/09/13 03:47:03;;;;;;;;;19.67;17.00;;;;;21.55;100.00;101508.88;5075722;27;64701;-75
2023/09/13 03:49:28;;;;;;;;;24.67;23.00;;;;;21.63;100.00;101509.59;5067353;27;45520;-76
2023/09/13 03:51:54;;;;;;;;;21.00;20.33;;;;;21.61;100.00;101508.72;5076310;27;46675;-76
2023/09/13 03:54:19;;;;;;;;;25.00;21.33;;;;;21.60;100.00;101504.28;5065457;27;45280;-76
2023/09/13 03:56:44;;;;;;;;;25.00;20.33;;;;;21.56;100.00;101506.13;5077989;27;60337;-75
2023/09/13 03:59:10;;;;;;;;;22.33;19.67;;;;;21.50;100.00;101508.97;5076868;27;45401;-76
2023/09/13 04:01:35;;;;;;;;;23.00;20.67;;;;;21.48;100.00;101508.13;5078474;27;47343;-76
2023/09/13 04:04:01;;;;;;;;;19.50;16.50;;;;;21.41;100.00;101502.03;5077281;28;45589;-76
2023/09/13 04:06:26;;;;;;;;;25.00;21.33;;;;;21.33;100.00;101509.38;5077430;27;45407;-76
2023/09/13 04:08:51;;;;;;;;;25.00;21.00;;;;;21.31;100.00;101519.28;5078115;27;45318;-76
2023/09/13 04:11:17;;;;;;;;;22.67;20.00;;;;;21.27;100.00;101528.28;5067724;27;45657;-75
2023/09/13 04:13:42;;;;;;;;;28.67;24.00;;;;;21.29;100.00;101523.75;5077765;27;68603;-76
2023/09/13 04:16:08;;;;;;;;;23.00;20.00;;;;;21.30;100.00;101522.84;5065752;27;58929;-76
2023/09/13 04:18:33;;;;;;;;;24.33;20.33;;;;;21.34;100.00;101518.31;5077398;27;45564;-76
2023/09/13 04:20:59;;;;;;;;;19.00;18.00;;;;;21.33;100.00;101517.44;5071893;27;71732;-76
2023/09/13 04:23:24;;;;;;;;;22.33;19.33;;;;;21.37;100.00;101521.81;5077940;27;50383;-76
2023/09/13 04:25:50;;;;;;;;;28.00;24.67;;;;;21.40;100.00;101518.16;5077536;27;45943;-76
2023/09/13 04:28:15;;;;;;;;;22.67;19.67;;;;;21.45;100.00;101517.13;5070401;27;45434;-76
2023/09/13 04:30:41;;;;;;;;;20.33;18.00;;;;;21.53;100.00;101513.41;5071858;28;52425;-76
2023/09/13 04:33:07;;;;;;;;;21.33;19.33;;;;;21.51;100.00;101507.16;5074995;27;46317;-77
2023/09/13 04:35:33;;;;;;;;;19.67;19.00;;;;;21.50;100.00;101508.09;5071023;27;45190;-76
2023/09/13 04:37:58;;;;;;;;;22.33;19.67;;;;;21.51;100.00;101515.22;5066308;28;45413;-75
2023/09/13 04:40:23;;;;;;;;;18.67;18.00;;;;;21.53;100.00;101514.28;5072550;28;46567;-76
2023/09/13 04:42:58;;;;;;;;;22.00;20.33;;;;;21.56;100.00;101516.88;5068400;27;59247;-77
2023/09/13 04:45:23;;;;;;;;;19.33;18.00;;;;;21.54;100.00;101524.13;5077766;27;45353;-77
2023/09/13 04:47:49;;;;;;;;;21.00;19.33;;;;;21.66;100.00;101518.44;5072493;27;45485;-76
2023/09/13 04:50:14;;;;;;;;;21.67;21.33;;;;;21.62;100.00;101529.28;5069942;27;46493;-76
2023/09/13 04:52:39;;;;;;;;;18.33;16.67;;;;;21.57;100.00;101536.59;5077570;27;45437;-76
2023/09/13 04:55:05;;;;;;;;;21.67;18.67;;;;;21.56;100.00;101538.38;5075268;27;55817;-76
2023/09/13 04:57:30;;;;;;;;;18.67;17.00;;;;;21.62;100.00;101542.75;5074042;28;45184;-76
2023/09/13 04:59:56;;;;;;;;;21.33;18.00;;;;;21.65;100.00;101545.38;5076305;27;70610;-76
2023/09/13 05:02:21;;;;;;;;;15.67;15.67;;;;;21.65;100.00;101538.19;5075080;28;45380;-76
2023/09/13 05:04:46;;;;;;;;;17.67;16.67;;;;;21.62;100.00;101540.03;5065693;27;63373;-76
2023/09/13 05:07:12;;;;;;;;;16.33;14.67;;;;;21.67;100.00;101539.00;5061620;27;45600;-76
2023/09/13 05:09:40;;;;;;;;;16.33;15.67;;;;;21.66;100.00;101536.38;5067586;27;70047;-76
2023/09/13 05:12:06;;;;;;;;;20.00;17.67;;;;;21.64;100.00;101538.22;5067007;27;45358;-76
2023/09/13 05:14:31;;;;;;;;;20.33;18.67;;;;;21.69;100.00;101541.69;5069177;28;45544;-76
2023/09/13 05:16:57;;;;;;;;;21.00;18.33;;;;;21.68;100.00;101540.81;5057677;27;45588;-76
2023/09/13 05:19:22;;;;;;;;;18.00;16.33;;;;;21.75;100.00;101546.91;5063033;28;46534;-76
2023/09/13 05:21:48;;;;;;;;;20.00;16.00;;;;;21.70;100.00;101554.22;5067316;27;45872;-76
2023/09/13 05:24:13;;;;;;;;;20.67;19.67;;;;;21.74;100.00;101555.03;5074566;27;45837;-76
2023/09/13 05:26:38;;;;;;;;;17.67;14.33;;;;;21.69;100.00;101557.81;5067887;27;61453;-77
2023/09/13 05:29:04;;;;;;;;;16.67;15.33;;;;;21.70;100.00;101570.34;5065958;27;47561;-77
2023/09/13 05:31:29;;;;;;;;;18.33;16.67;;;;;21.68;100.00;101572.19;5070252;28;51741;-77
2023/09/13 05:33:54;;;;;;;;;22.67;19.33;;;;;21.66;100.00;101574.88;5074517;27;47412;-76
2023/09/13 05:36:20;;;;;;;;;21.67;18.00;;;;;21.72;100.00;101581.91;5068493;27;62649;-76
2023/09/13 05:38:46;;;;;;;;;16.00;14.67;;;;;21.69;100.00;101576.63;5060100;28;47397;-76
2023/09/13 05:41:12;;;;;;;;;18.33;16.67;;;;;21.77;100.00;101588.06;5068606;27;45487;-76
2023/09/13 05:43:39;;;;;;;;;21.33;19.33;;;;;21.76;100.00;101586.31;5067553;28;45873;-76
2023/09/13 05:46:05;;;;;;;;;18.00;17.00;;;;;21.82;100.00;101591.53;5067325;28;45644;-76
2023/09/13 05:48:31;;;;;;;;;18.67;17.33;;;;;21.87;100.00;101596.81;5072938;27;46787;-76
2023/09/13 05:50:56;;;;;;;;;16.67;15.67;;;;;21.83;100.00;101598.69;5070288;27;45282;-76
2023/09/13 05:53:22;;;;;;;;;18.67;17.33;;;;;21.77;100.00;101601.53;5063255;27;55990;-77
2023/09/13 05:55:47;;;;;;;;;23.33;21.00;;;;;21.74;100.00;101604.28;5061852;28;58968;-76
2023/09/13 05:58:13;;;;;;;;;19.67;17.33;;;;;21.76;100.00;101593.50;5073109;27;46365;-76
2023/09/13 06:00:41;;;;;;;;;20.33;18.00;;;;;21.93;100.00;101604.72;5059366;27;45438;-77
2023/09/13 06:03:06;;;;;;;;;19.67;19.67;;;;;21.92;100.00;101606.53;5056328;28;45386;-76
2023/09/13 06:05:32;;;;;;;;;21.33;19.67;;;;;21.99;100.00;101607.28;5060475;28;62132;-76
2023/09/13 06:07:57;;;;;;;;;17.00;16.33;;;;;22.00;100.00;101600.09;5061535;28;71524;-76
2023/09/13 06:10:22;;;;;;;;;18.67;18.67;;;;;21.99;100.00;101604.59;5059934;27;71025;-76
2023/09/13 06:12:48;;;;;;;;;19.67;19.67;;;;;22.03;100.00;101608.97;5060179;28;63313;-76
2023/09/13 06:15:13;;;;;;;;;23.33;20.67;;;;;22.05;100.00;101599.09;5067100;27;49347;-76
2023/09/13 06:17:38;;;;;;;;;23.67;20.67;;;;;22.00;100.00;101600.09;5068420;27;69032;-76
2023/09/13 06:20:04;;;;;;;;;23.67;20.33;;;;;22.07;100.00;101601.72;5062737;28;45538;-76
2023/09/13 06:22:32;;;;;;;;;23.00;18.33;;;;;22.00;100.00;101602.78;5069074;27;45353;-76
2023/09/13 06:24:58;;;;;;;;;19.67;18.67;;;;;22.08;100.00;101600.78;5070932;27;45541;-76
2023/09/13 06:27:24;;;;;;;;;17.67;17.67;;;;;22.07;100.00;101604.41;5063894;27;46683;-76
2023/09/13 06:29:49;;;;;;;;;19.67;18.00;;;;;22.04;100.00;101613.44;5065413;28;60244;-76
2023/09/13 06:32:14;;;;;;;;;20.67;19.00;;;;;22.21;100.00;101616.66;5058956;28;45639;-76
2023/09/13 06:34:40;;;;;;;;;16.00;14.00;;;;;22.27;100.00;101598.59;5068550;27;61874;-74
2023/09/13 06:37:05;;;;;;;;;20.67;18.00;;;;;22.20;100.00;101597.84;5069192;27;48017;-74
2023/09/13 06:39:30;;;;;;;;;20.67;18.33;;;;;22.04;100.00;101609.84;5073823;28;45374;-75
2023/09/13 06:41:56;;;;;;;;;21.67;17.00;;;;;22.07;100.00;101610.69;5071310;27;45555;-75
2023/09/13 06:44:21;;;;;;;;;16.67;16.67;;;;;21.87;100.00;101616.53;5068808;27;50329;-74
2023/09/13 06:46:46;;;;;;;;;18.00;17.33;;;;;21.76;100.00;101620.38;5064617;27;46114;-75
2023/09/13 06:49:12;;;;;;;;;23.67;21.67;;;;;21.79;100.00;101623.00;5072354;27;66384;-75
2023/09/13 06:51:37;;;;;;;;;22.67;20.33;;;;;21.84;100.00;101622.00;5066997;27;66373;-75
2023/09/13 06:54:03;;;;;;;;;20.33;20.33;;;;;21.86;100.00;101620.13;5066001;28;51613;-76
2023/09/13 06:56:28;;;;;;;;;19.67;19.00;;;;;21.90;100.00;101624.53;5074203;28;46534;-76
2023/09/13 06:58:53;;;;;;;;;22.33;19.67;;;;;21.93;100.00;101629.81;5068527;28;67782;-75
2023/09/13 07:01:19;;;;;;;;;20.67;19.67;;;;;22.07;100.00;101626.81;5072158;27;65532;-75
2023/09/13 07:03:44;;;;;;;;;22.33;22.00;;;;;22.18;100.00;101630.16;5071387;27;45382;-75
2023/09/13 07:06:11;;;;;;;;;20.33;19.00;;;;;22.09;100.00;101629.47;5071141;27;46652;-76
2023/09/13 07:08:36;;;;;;;;;21.00;19.67;;;;;22.11;100.00;101627.66;5066946;27;45554;-75
2023/09/13 07:11:02;;;;;;;;;26.00;23.00;;;;;22.20;100.00;101620.22;5071361;27;64384;-73
2023/09/13 07:13:27;;;;;;;;;21.33;16.67;;;;;22.16;100.00;101625.75;5071553;27;45611;-72
2023/09/13 07:15:53;;;;;;;;;22.33;19.33;;;;;22.20;100.00;101617.53;5063435;27;46302;-72
2023/09/13 07:18:18;;;;;;;;;20.00;14.33;;;;;22.48;100.00;101619.56;5057626;27;45460;-73
2023/09/13 07:20:44;;;;;;;;;19.67;19.00;;;;;22.31;100.00;101627.16;5072001;28;59004;-74
2023/09/13 07:23:10;;;;;;;;;20.00;13.00;;;;;22.45;100.00;101620.50;5067713;28;45516;-75
2023/09/13 07:25:35;;;;;;;;;20.33;16.67;;;;;22.43;100.00;101619.69;5069022;27;45504;-74
2023/09/13 07:28:00;;;;;;;;;22.67;19.00;;;;;22.47;100.00;101624.03;5063587;28;67553;-73
2023/09/13 07:30:26;;;;;;;;;21.33;18.67;;;;;22.43;100.00;101626.88;5068468;27;56836;-74
2023/09/13 07:32:52;;;;;;;;;23.00;21.00;;;;;22.47;100.00;101644.69;5064125;27;45472;-71
2023/09/13 07:35:17;;;;;;;;;24.33;23.00;;;;;22.57;100.00;101639.97;5073196;27;66436;-73
2023/09/13 07:37:43;;;;;;;;;20.67;18.00;;;;;22.60;100.00;101637.19;5061668;27;46173;-72
2023/09/13 07:40:10;;;;;;;;;20.33;17.33;;;;;22.62;100.00;101638.03;5061532;27;45955;-75
2023/09/13 07:42:35;;;;;;;;;18.33;17.00;;;;;22.72;100.00;101642.25;5067086;28;45535;-76
2023/09/13 07:45:01;;;;;;;;;14.67;14.33;;;;;22.81;100.00;101639.31;5059435;28;45610;-76
2023/09/13 07:47:28;;;;;;;;;19.67;17.00;;;;;22.79;100.00;101635.75;5072463;28;46582;-76
2023/09/13 07:49:53;;;;;;;;;16.33;13.33;;;;;22.75;100.00;101648.44;5073544;28;45406;-76
2023/09/13 07:52:18;;;;;;;;;16.00;16.00;;;;;22.85;100.00;101653.56;5062763;27;45703;-75
2023/09/13 07:54:44;;;;;;;;;18.00;15.67;;;;;22.87;100.00;101646.34;5067394;27;68579;-76
2023/09/13 07:57:09;;;;;;;;;11.33;10.67;;;;;22.84;100.00;101655.38;5064983;28;45479;-75
2023/09/13 07:59:34;;;;;;;;;12.33;12.33;;;;;22.91;100.00;101656.16;5061302;27;61492;-75
2023/09/13 08:02:00;;;;;;;;;14.33;13.67;;;;;23.01;100.00;101657.69;5070563;28;62663;-75
2023/09/13 08:04:25;;;;;;;;;15.00;14.00;;;;;22.98;100.00;101657.75;5068971;27;46163;-76
2023/09/13 08:06:50;;;;;;;;;16.33;13.00;;;;;22.97;100.00;101662.25;5059284;27;65166;-77
2023/09/13 08:09:16;;;;;;;;;15.00;11.33;;;;;23.18;100.00;101670.66;5064059;28;64834;-75
2023/09/13 08:11:42;;;;;;;;;16.33;14.00;;;;;23.23;100.00;101666.91;5093932;22;61278;-76
2023/09/13 08:14:07;;;;;;;;;13.00;11.67;;;;;23.03;100.00;101657.63;5067435;28;47411;-76
2023/09/13 08:16:33;;;;;;;;;14.67;13.67;;;;;23.06;100.00;101657.53;5065485;28;66075;-75
2023/09/13 08:18:58;;;;;;;;;13.33;13.33;;;;;23.07;100.00;101656.63;5070001;28;45492;-75
2023/09/13 08:21:23;;;;;;;;;15.00;12.67;;;;;22.97;100.00;101651.47;5065792;27;45496;-77
2023/09/13 08:23:49;;;;;;;;;17.33;16.00;;;;;22.99;100.00;101659.50;5063667;27;46453;-77
2023/09/13 08:26:16;;;;;;;;;13.33;13.33;;;;;23.06;100.00;101676.38;5071124;28;54256;-75
2023/09/13 08:28:41;;;;;;;;;14.00;14.00;;;;;23.12;100.00;101673.53;5065627;28;45497;-76
2023/09/13 08:31:07;;;;;;;;;20.67;19.00;;;;;23.27;100.00;101686.56;5064306;28;47342;-75
2023/09/13 08:33:32;;;;;;;;;18.67;14.67;;;;;23.41;100.00;101700.53;5067274;28;70771;-78
2023/09/13 08:35:57;;;;;;;;;16.33;14.67;;;;;23.48;100.00;101710.19;5068612;28;61055;-78
2023/09/13 08:38:23;;;;;;;;;17.00;16.00;;;;;23.55;100.00;101705.53;5072240;27;45578;-77
2023/09/13 08:40:49;;;;;;;;;17.67;13.67;;;;;23.59;100.00;101703.63;5070760;28;45534;-73
2023/09/13 08:43:15;;;;;;;;;16.00;14.33;;;;;23.62;100.00;101703.56;5069658;27;47382;-77
2023/09/13 08:45:40;;;;;;;;;14.67;13.33;;;;;23.63;100.00;101706.22;5063895;28;69067;-77
2023/09/13 08:48:06;;;;;;;;;19.33;15.33;;;;;23.63;100.00;101700.84;5072965;27;45540;-77
2023/09/13 08:50:34;;;;;;;;;14.00;12.67;;;;;23.56;100.00;101696.53;5068854;28;45456;-77
2023/09/13 08:53:01;;;;;;;;;13.67;13.67;;;;;23.49;100.00;101708.44;5070640;27;47155;-77
2023/09/13 08:55:27;;;;;;;;;16.33;14.33;;;;;23.54;100.00;101714.53;5064208;28;46074;-77
2023/09/13 08:57:54;;;;;;;;;16.00;13.67;;;;;23.58;100.00;101718.91;5062484;28;45965;-78
2023/09/13 09:00:19;;;;;;;;;13.00;12.33;;;;;23.67;100.00;101729.47;5066619;28;45399;-78
2023/09/13 09:02:47;;;;;;;;;14.67;12.67;;;;;23.78;100.00;101718.38;5069518;28;46233;-77
2023/09/13 09:05:13;;;;;;;;;10.67;10.00;;;;;23.85;100.00;101728.03;5058599;28;45492;-79
2023/09/13 09:07:41;;;;;;;;;14.33;14.33;;;;;23.99;100.00;101716.84;5067640;28;45462;-78
2023/09/13 09:10:11;;;;;;;;;12.33;11.00;;;;;23.96;100.00;101714.22;5064433;28;45587;-79
2023/09/13 09:12:42;;;;;;;;;12.33;10.67;;;;;23.90;100.00;101720.69;5068827;28;46650;-75
2023/09/13 09:15:08;;;;;;;;;14.00;10.33;;;;;23.85;100.00;101717.25;5068745;28;45662;-78
2023/09/13 09:17:35;;;;;;;;;11.67;10.00;;;;;23.84;100.00;101715.50;5064397;28;46618;-77
2023/09/13 09:20:00;;;;;;;;;11.67;10.00;;;;;23.85;100.00;101719.94;5068419;28;59717;-78
2023/09/13 09:22:26;;;;;;;;;10.67;10.67;;;;;23.96;100.00;101723.19;5068249;27;46627;-77
2023/09/13 09:24:52;;;;;;;;;14.00;10.00;;;;;24.07;100.00;101717.47;5065138;28;45525;-77
2023/09/13 09:27:17;;;;;;;;;10.33;9.00;;;;;24.23;100.00;101725.97;5074594;27;60955;-78
2023/09/13 09:29:44;;;;;;;;;12.00;8.67;;;;;24.17;100.00;101713.56;5069754;27;54535;-80
2023/09/13 09:32:12;;;;;;;;;9.00;8.67;;;;;24.17;100.00;101712.69;5073552;27;47416;-78
2023/09/13 09:34:40;;;;;;;;;6.67;6.67;;;;;24.16;100.00;101714.50;5070797;27;45421;-77
2023/09/13 09:37:10;;;;;;;;;7.00;7.00;;;;;24.15;100.00;101706.47;5067158;28;45622;-78
2023/09/13 09:39:41;;;;;;;;;9.00;7.33;;;;;24.18;100.00;101709.03;5063190;28;45523;-77
2023/09/13 09:42:06;;;;;;;;;7.33;6.00;;;;;24.15;100.00;101703.75;5061498;28;46786;-77
2023/09/13 09:44:32;;;;;;;;;7.67;7.00;;;;;24.05;100.00;101703.16;5060598;27;48754;-77
2023/09/13 09:46:57;;;;;;;;;6.33;6.00;;;;;23.99;100.00;101701.53;5062861;28;45450;-77
2023/09/13 09:49:23;;;;;;;;;7.00;7.00;;;;;24.01;100.00;101706.88;5066526;28;45515;-78
2023/09/13 09:51:49;;;;;;;;;12.00;10.00;;;;;23.97;100.00;101706.13;5066463;28;47715;-77
2023/09/13 09:54:14;;;;;;;;;7.33;7.33;;;;;24.03;100.00;101705.91;5060538;28;62691;-78
2023/09/13 09:56:40;;;;;;;;;8.33;7.00;;;;;24.11;100.00;101704.78;5064280;27;62312;-78
2023/09/13 09:59:05;;;;;;;;;7.67;6.00;;;;;24.19;100.00;101692.81;5060769;27;47546;-78
2023/09/13 10:01:31;;;;;;;;;3.00;2.00;;;;;24.23;100.00;101696.28;5073284;27;45447;-79
2023/09/13 10:04:07;;;;;;;;;7.33;6.33;;;;;24.29;100.00;101706.91;5064056;27;45430;-77
2023/09/13 10:06:32;;;;;;;;;8.33;6.00;;;;;24.33;100.00;101721.19;5067109;27;45434;-76
2023/09/13 10:08:59;;;;;;;;;7.33;6.00;;;;;24.66;100.00;101703.94;5064851;28;63448;-77
2023/09/13 10:11:25;;;;;;;;;7.00;7.00;;;;;24.72;100.00;101701.00;5067534;28;72901;-77
2023/09/13 10:13:52;;;;;;;;;6.67;6.67;;;;;24.35;100.00;101712.16;5067001;28;46263;-74
2023/09/13 10:16:18;;;;;;;;;6.33;6.33;;;;;24.41;100.00;101711.06;5066694;28;67063;-74
2023/09/13 10:18:43;;;;;;;;;8.00;6.67;;;;;24.63;100.00;101722.91;5066858;27;45501;-73
2023/09/13 10:21:09;;;;;;;;;7.33;6.00;;;;;24.83;100.00;101709.63;5070967;28;46206;-73
2023/09/13 10:23:43;;;;;;;;;6.67;6.67;;;;;25.10;100.00;101703.34;5064815;28;45378;-77
2023/09/13 10:26:10;;;;;;;;;8.00;6.33;;;;;25.31;100.00;101703.44;5069023;28;45369;-74
2023/09/13 10:28:39;;;;;;;;;7.33;7.33;;;;;25.45;100.00;101697.53;5057974;28;45633;-75
2023/09/13 10:31:08;;;;;;;;;12.00;9.00;;;;;25.42;100.00;101691.38;5067190;28;47574;-75
2023/09/13 10:33:35;;;;;;;;;7.67;7.67;;;;;25.44;100.00;101692.19;5058244;28;45560;-73
2023/09/13 10:36:02;;;;;;;;;10.00;6.33;;;;;25.45;100.00;101693.94;5065181;27;45510;-75
2023/09/13 10:38:45;;;;;;;;;9.00;7.00;;;;;25.47;100.00;101701.06;5071351;28;45540;-75
2023/09/13 10:41:16;;;;;;;;;6.00;6.00;;;;;25.53;100.00;101711.66;5062642;28;47047;-75
2023/09/13 10:43:42;;;;;;;;;7.67;6.00;;;;;25.63;100.00;101716.72;5059458;28;45517;-79
2023/09/13 10:46:08;;;;;;;;;6.00;6.00;;;;;25.75;100.00;101713.56;5068135;28;45592;-78
2023/09/13 10:48:34;;;;;;;;;7.00;4.67;;;;;25.83;100.00;101712.34;5065721;28;45425;-79
2023/09/13 10:51:00;;;;;;;;;5.00;5.00;;;;;25.86;100.00;101695.97;5064211;28;73694;-77
2023/09/13 10:53:26;;;;;;;;;7.00;6.00;;;;;25.97;100.00;101695.56;5056527;28;52198;-78
2023/09/13 10:55:52;;;;;;;;;8.67;8.00;;;;;26.05;100.00;101685.31;5061032;27;66083;-79
2023/09/13 10:58:20;;;;;;;;;7.33;6.00;;;;;26.05;100.00;101677.22;5065988;27;45492;-78
2023/09/13 11:00:50;;;;;;;;;7.00;6.00;;;;;26.08;100.00;101679.78;5065812;28;45725;-77